Time;durP1;ratioP1;P1;durP2;ratioP2;P2;SDS_P1;SDS_P2;PMS_P1;PMS_P2;Temp;Humidity;BMP_temperature;BMP_pressure;BME280_temperature;BME280_humidity;BME280_pressure;Samples;Min_cycle;Max_cycle;Signal;HPM_P1;HPM_P2
2021/05/17 00:02:00;;;;;;;1.50;0.80;;;11.20;99.90;;;;;;5091892;28;20207;-81
2021/05/17 00:04:31;;;;;;;1.33;0.70;;;11.30;99.90;;;;;;5090508;28;20206;-80
2021/05/17 00:06:58;;;;;;;1.83;0.77;;;11.40;99.90;;;;;;5092072;28;20557;-79
2021/05/17 00:09:25;;;;;;;2.97;0.87;;;11.40;99.90;;;;;;5093020;28;20285;-79
2021/05/17 00:11:52;;;;;;;1.80;1.00;;;11.30;99.90;;;;;;5093342;28;20240;-79
2021/05/17 00:14:21;;;;;;;4.20;1.00;;;11.20;99.90;;;;;;5094197;28;20650;-79
2021/05/17 00:16:47;;;;;;;5.00;1.00;;;11.20;99.90;;;;;;5093140;28;20224;-81
2021/05/17 00:19:14;;;;;;;3.17;0.80;;;11.30;99.90;;;;;;5093421;28;20237;-80
2021/05/17 00:21:42;;;;;;;3.03;1.47;;;11.30;99.90;;;;;;5092470;28;20213;-79
2021/05/17 00:24:11;;;;;;;3.37;1.30;;;11.40;99.90;;;;;;5093261;28;20210;-80
2021/05/17 00:26:38;;;;;;;4.03;1.70;;;11.40;99.90;;;;;;5092848;28;20197;-79
2021/05/17 00:29:06;;;;;;;7.53;2.17;;;11.50;99.90;;;;;;5094444;28;20297;-82
2021/05/17 00:31:34;;;;;;;7.07;2.30;;;11.40;99.90;;;;;;5096890;28;20322;-81
2021/05/17 00:34:01;;;;;;;5.20;2.23;;;11.30;99.90;;;;;;5096271;28;20241;-79
2021/05/17 00:36:27;;;;;;;7.97;2.53;;;11.20;99.90;;;;;;5096297;28;20195;-81
2021/05/17 00:38:55;;;;;;;8.20;3.30;;;11.20;99.90;;;;;;5096269;28;20309;-79
2021/05/17 00:41:21;;;;;;;9.77;3.47;;;11.20;99.90;;;;;;5096412;28;20301;-82
2021/05/17 00:43:48;;;;;;;13.50;4.20;;;11.20;99.90;;;;;;5098709;28;20233;-79
2021/05/17 00:46:14;;;;;;;16.67;5.10;;;11.20;99.90;;;;;;5100744;28;20209;-79
2021/05/17 00:48:43;;;;;;;15.27;5.33;;;11.10;99.90;;;;;;5089253;28;20752;-83
2021/05/17 00:51:10;;;;;;;15.50;5.60;;;11.20;99.90;;;;;;5094451;28;20293;-80
2021/05/17 00:53:36;;;;;;;19.90;6.40;;;11.10;99.90;;;;;;5095936;28;20202;-79
2021/05/17 00:56:05;;;;;;;17.70;6.57;;;11.10;99.90;;;;;;5095961;28;20197;-79
2021/05/17 00:58:32;;;;;;;26.03;7.23;;;11.20;99.90;;;;;;5095520;28;20584;-78
2021/05/17 01:00:58;;;;;;;18.37;7.07;;;11.20;99.90;;;;;;5095918;28;20244;-79
2021/05/17 01:03:25;;;;;;;20.00;7.13;;;11.30;99.90;;;;;;5096025;28;20289;-81
2021/05/17 01:05:53;;;;;;;18.87;6.90;;;11.30;99.90;;;;;;5095702;28;20297;-79
2021/05/17 01:08:23;;;;;;;21.57;7.33;;;11.30;99.90;;;;;;5096213;28;20216;-79
2021/05/17 01:10:53;;;;;;;21.77;6.70;;;11.30;99.90;;;;;;5096220;28;20609;-80
2021/05/17 01:13:19;;;;;;;17.20;7.07;;;11.30;99.90;;;;;;5092162;28;20216;-80
2021/05/17 01:15:48;;;;;;;15.50;6.20;;;11.40;99.90;;;;;;5085796;28;20246;-80
2021/05/17 01:18:16;;;;;;;18.53;6.97;;;11.40;99.90;;;;;;5095249;28;20229;-80
2021/05/17 01:20:44;;;;;;;17.27;6.57;;;11.30;99.90;;;;;;5096284;28;20199;-81
2021/05/17 01:23:31;;;;;;;15.67;6.53;;;11.20;99.90;;;;;;5095355;28;20675;-79
2021/05/17 01:26:00;;;;;;;18.63;6.17;;;11.10;99.90;;;;;;5095636;28;20237;-79
2021/05/17 01:28:29;;;;;;;13.53;5.70;;;11.00;99.90;;;;;;5095354;28;20643;-80
2021/05/17 01:30:59;;;;;;;14.13;5.40;;;11.00;99.90;;;;;;5095431;28;20555;-83
2021/05/17 01:33:31;;;;;;;19.13;5.07;;;11.10;99.90;;;;;;5095744;28;20214;-79
2021/05/17 01:35:59;;;;;;;14.13;5.17;;;11.20;99.90;;;;;;5095277;28;20665;-83
2021/05/17 01:38:27;;;;;;;12.80;5.30;;;11.10;99.90;;;;;;5095273;28;20280;-79
2021/05/17 01:40:54;;;;;;;9.90;4.50;;;11.20;99.90;;;;;;5094727;28;20216;-83
2021/05/17 01:43:22;;;;;;;11.17;4.33;;;11.20;99.90;;;;;;5094924;28;20198;-79
2021/05/17 01:45:50;;;;;;;8.00;4.33;;;11.30;99.90;;;;;;5095168;28;20195;-80
2021/05/17 01:48:23;;;;;;;11.00;4.17;;;11.30;99.90;;;;;;5094906;28;20265;-79
2021/05/17 01:50:50;;;;;;;9.83;3.83;;;11.30;99.90;;;;;;5095746;28;20206;-79
2021/05/17 01:53:17;;;;;;;10.37;4.07;;;11.30;99.90;;;;;;5099280;28;20269;-78
2021/05/17 01:55:45;;;;;;;7.00;3.80;;;11.40;99.90;;;;;;5097340;28;20569;-79
2021/05/17 01:58:18;;;;;;;16.50;4.33;;;11.40;99.90;;;;;;5095084;28;20233;-79
2021/05/17 02:00:45;;;;;;;7.87;3.70;;;11.40;99.90;;;;;;5094804;28;20206;-81
2021/05/17 02:03:12;;;;;;;10.53;3.93;;;11.40;99.90;;;;;;5094536;28;20207;-79
2021/05/17 02:05:38;;;;;;;8.63;3.57;;;11.40;99.90;;;;;;5094211;28;20619;-79
2021/05/17 02:08:09;;;;;;;5.93;2.57;;;11.40;99.90;;;;;;5094467;28;20565;-83
2021/05/17 02:10:36;;;;;;;8.47;3.37;;;11.40;99.90;;;;;;5094755;28;20221;-78
2021/05/17 02:13:05;;;;;;;13.23;2.73;;;11.40;99.90;;;;;;5094314;28;20617;-82
2021/05/17 02:15:32;;;;;;;8.70;2.60;;;11.40;99.90;;;;;;5096212;28;20300;-82
2021/05/17 02:18:03;;;;;;;6.57;2.43;;;11.50;99.90;;;;;;5095656;28;20573;-77
2021/05/17 02:20:32;;;;;;;7.70;2.13;;;11.40;99.90;;;;;;5094536;28;20220;-83
2021/05/17 02:22:59;;;;;;;6.33;2.13;;;11.40;99.90;;;;;;5094528;28;20255;-79
2021/05/17 02:25:26;;;;;;;6.03;1.77;;;11.40;99.90;;;;;;5094837;28;20205;-79
2021/05/17 02:27:53;;;;;;;5.70;1.50;;;11.40;99.90;;;;;;5095125;28;20273;-80
2021/05/17 02:30:22;;;;;;;10.87;2.07;;;11.40;99.90;;;;;;5095338;28;20269;-80
2021/05/17 02:32:48;;;;;;;5.90;1.60;;;11.40;99.90;;;;;;5095645;28;20297;-79
2021/05/17 02:35:16;;;;;;;5.47;1.57;;;11.30;99.90;;;;;;5093947;28;20199;-80
2021/05/17 02:37:42;;;;;;;7.50;1.53;;;11.20;99.90;;;;;;5094482;28;20571;-81
2021/05/17 02:40:10;;;;;;;6.77;1.87;;;11.20;99.90;;;;;;5093829;28;20229;-80
2021/05/17 02:42:38;;;;;;;6.43;1.60;;;11.30;99.90;;;;;;5094049;28;20284;-83
2021/05/17 02:45:06;;;;;;;9.30;1.63;;;11.30;99.90;;;;;;5093969;28;20232;-79
2021/05/17 02:47:35;;;;;;;9.27;1.70;;;11.30;99.90;;;;;;5094015;28;20193;-78
2021/05/17 02:50:03;;;;;;;4.40;1.40;;;11.30;99.90;;;;;;5093998;28;20250;-80
2021/05/17 02:52:31;;;;;;;6.37;1.70;;;11.20;99.90;;;;;;5092675;28;20229;-78
2021/05/17 02:55:04;;;;;;;9.93;1.77;;;11.30;99.90;;;;;;5093814;28;20258;-80
2021/05/17 02:57:42;;;;;;;10.47;1.80;;;11.20;99.90;;;;;;5093321;28;20282;-79
2021/05/17 03:00:14;;;;;;;9.20;1.87;;;11.20;99.90;;;;;;5092696;28;20289;-79
2021/05/17 03:03:13;;;;;;;11.67;2.03;;;11.10;99.90;;;;;;5092933;28;20242;-78
2021/05/17 03:05:41;;;;;;;7.60;1.40;;;11.10;99.90;;;;;;5092807;28;20606;-81
2021/05/17 03:08:09;;;;;;;12.07;1.60;;;11.10;99.90;;;;;;5093196;28;20232;-82
2021/05/17 03:10:37;;;;;;;7.13;1.90;;;11.10;99.90;;;;;;5092996;28;20196;-79
2021/05/17 03:13:11;;;;;;;4.90;1.90;;;11.10;99.90;;;;;;5093027;28;20221;-79
2021/05/17 03:15:39;;;;;;;15.20;1.80;;;11.10;99.90;;;;;;5093457;28;20233;-79
2021/05/17 03:18:06;;;;;;;12.63;1.90;;;11.10;99.90;;;;;;5093128;28;20751;-79
2021/05/17 03:20:34;;;;;;;7.80;1.73;;;11.10;99.90;;;;;;5093232;28;20234;-79
2021/05/17 03:23:06;;;;;;;11.90;1.70;;;11.10;99.90;;;;;;5092874;28;20207;-80
2021/05/17 03:25:34;;;;;;;9.13;1.30;;;11.20;99.90;;;;;;5092973;28;20280;-78
2021/05/17 03:28:01;;;;;;;10.10;1.87;;;11.20;99.90;;;;;;5093034;28;20205;-79
2021/05/17 03:30:27;;;;;;;11.90;1.80;;;11.20;99.90;;;;;;5092471;28;20246;-80
2021/05/17 03:32:54;;;;;;;5.77;1.33;;;11.20;99.90;;;;;;5093161;28;20208;-79
2021/05/17 03:35:20;;;;;;;8.23;1.70;;;11.30;99.90;;;;;;5092951;28;20197;-79
2021/05/17 03:37:48;;;;;;;6.50;1.30;;;11.30;99.90;;;;;;5092901;28;20202;-79
2021/05/17 03:40:16;;;;;;;14.90;2.93;;;11.30;99.90;;;;;;5092766;28;20226;-79
2021/05/17 03:42:42;;;;;;;10.67;1.80;;;11.20;99.90;;;;;;5092991;28;20668;-78
2021/05/17 03:45:11;;;;;;;5.80;1.40;;;11.20;99.90;;;;;;5092912;28;20201;-78
2021/05/17 03:47:38;;;;;;;6.73;1.50;;;11.30;99.90;;;;;;5093025;28;20201;-82
2021/05/17 03:50:07;;;;;;;9.70;1.80;;;11.20;99.90;;;;;;5093841;28;20222;-79
2021/05/17 03:52:34;;;;;;;7.07;1.70;;;11.20;99.90;;;;;;5092408;28;20791;-82
2021/05/17 03:55:01;;;;;;;10.83;1.87;;;11.20;99.90;;;;;;5093109;28;20289;-83
2021/05/17 03:57:27;;;;;;;8.60;1.50;;;11.20;99.90;;;;;;5092991;28;20604;-79
2021/05/17 03:59:54;;;;;;;9.47;2.10;;;11.10;99.90;;;;;;5093070;28;20233;-78
2021/05/17 04:02:22;;;;;;;7.17;1.70;;;11.10;99.90;;;;;;5092943;28;20212;-81
2021/05/17 04:04:52;;;;;;;5.57;1.37;;;11.10;99.90;;;;;;5095943;28;20196;-80
2021/05/17 04:07:33;;;;;;;7.63;1.50;;;11.10;99.90;;;;;;5097316;28;20201;-81
2021/05/17 04:15:29;;;;;;;11.23;1.70;;;11.20;99.90;;;;;;5096930;28;20203;-78
2021/05/17 04:17:55;;;;;;;7.73;1.70;;;11.20;99.90;;;;;;5096936;28;20488;-80
2021/05/17 04:20:21;;;;;;;12.03;1.93;;;11.20;99.90;;;;;;5096793;28;20233;-79
2021/05/17 04:22:48;;;;;;;7.30;1.67;;;11.20;99.90;;;;;;5096712;28;20712;-79
2021/05/17 04:25:14;;;;;;;7.80;1.70;;;11.20;99.90;;;;;;5096410;28;20288;-79
2021/05/17 04:27:40;;;;;;;7.53;1.40;;;11.30;99.90;;;;;;5096564;28;20288;-81
2021/05/17 04:30:09;;;;;;;7.27;1.80;;;11.30;99.90;;;;;;5096721;28;20600;-79
2021/05/17 04:32:35;;;;;;;9.87;1.80;;;11.30;99.90;;;;;;5096369;28;20211;-80
2021/05/17 04:35:02;;;;;;;10.17;2.47;;;11.30;99.90;;;;;;5095641;28;20209;-78
2021/05/17 04:37:28;;;;;;;9.37;1.93;;;11.30;99.90;;;;;;5096676;28;20327;-79
2021/05/17 04:39:54;;;;;;;7.40;1.83;;;11.30;99.90;;;;;;5096028;28;20319;-79
2021/05/17 04:42:21;;;;;;;8.87;2.07;;;11.20;99.90;;;;;;5096042;28;20209;-80
2021/05/17 04:44:47;;;;;;;7.63;1.87;;;11.30;99.90;;;;;;5096445;28;20224;-79
2021/05/17 04:47:14;;;;;;;7.70;1.70;;;11.30;99.90;;;;;;5095604;28;20288;-78
2021/05/17 04:49:41;;;;;;;8.70;2.00;;;11.30;99.90;;;;;;5096193;28;20387;-81
2021/05/17 04:52:07;;;;;;;8.47;2.00;;;11.30;99.90;;;;;;5096026;28;20286;-81
2021/05/17 04:54:34;;;;;;;11.07;1.80;;;11.30;99.90;;;;;;5096067;28;20235;-79
2021/05/17 04:57:00;;;;;;;6.37;1.90;;;11.30;99.90;;;;;;5095855;28;20205;-82
2021/05/17 04:59:26;;;;;;;11.20;1.70;;;11.30;99.90;;;;;;5095887;28;20226;-80
2021/05/17 05:01:53;;;;;;;8.57;1.77;;;11.40;99.90;;;;;;5094243;28;20202;-82
2021/05/17 05:04:20;;;;;;;6.40;1.70;;;11.50;99.90;;;;;;5089177;28;20250;-80
2021/05/17 05:06:46;;;;;;;11.17;2.20;;;11.60;99.90;;;;;;5084051;28;20557;-81
2021/05/17 05:09:13;;;;;;;5.77;1.60;;;11.60;99.90;;;;;;5091752;28;20288;-82
2021/05/17 05:11:39;;;;;;;9.50;1.97;;;11.60;99.90;;;;;;5095218;28;20278;-79
2021/05/17 05:14:06;;;;;;;7.43;1.60;;;11.60;99.90;;;;;;5095699;28;20292;-82
2021/05/17 05:16:32;;;;;;;6.93;1.83;;;11.60;99.90;;;;;;5082546;28;20271;-80
2021/05/17 05:18:58;;;;;;;6.23;1.97;;;11.50;99.90;;;;;;5091999;28;20249;-81
2021/05/17 05:21:26;;;;;;;9.63;1.50;;;11.50;99.90;;;;;;5094440;28;20238;-79
2021/05/17 05:23:52;;;;;;;8.43;2.23;;;11.40;99.90;;;;;;5084977;28;20546;-78
2021/05/17 05:29:11;;;;;;;10.30;2.57;;;11.30;99.90;;;;;;5083065;28;20264;-81
2021/05/17 05:31:41;;;;;;;6.07;1.80;;;11.30;99.90;;;;;;5097036;28;20555;-79
2021/05/17 05:34:07;;;;;;;9.87;2.00;;;11.20;99.90;;;;;;5097016;28;20217;-79
2021/05/17 05:36:35;;;;;;;5.13;2.10;;;11.10;99.90;;;;;;5088570;28;20296;-79
2021/05/17 05:39:01;;;;;;;11.07;2.33;;;11.10;99.90;;;;;;5095979;28;20325;-82
2021/05/17 05:41:28;;;;;;;8.20;2.33;;;11.20;99.90;;;;;;5095787;28;20330;-81
2021/05/17 05:43:54;;;;;;;8.17;2.20;;;11.20;99.90;;;;;;5095511;28;20292;-84
2021/05/17 05:46:21;;;;;;;7.17;2.50;;;11.20;99.90;;;;;;5097569;28;20611;-80
2021/05/17 05:48:48;;;;;;;8.63;2.33;;;11.20;99.90;;;;;;5097153;28;20207;-85
2021/05/17 05:51:16;;;;;;;9.20;2.37;;;11.30;99.90;;;;;;5098783;28;20626;-83
2021/05/17 05:53:46;;;;;;;8.57;2.47;;;11.30;99.90;;;;;;5098512;28;20245;-84
2021/05/17 05:56:12;;;;;;;6.93;2.20;;;11.40;99.90;;;;;;5095754;28;20201;-84
2021/05/17 05:58:39;;;;;;;7.13;2.73;;;11.50;99.90;;;;;;5095914;28;20221;-84
2021/05/17 06:01:05;;;;;;;9.53;2.17;;;11.50;99.90;;;;;;5096921;28;20216;-83
2021/05/17 06:03:32;;;;;;;10.27;2.23;;;11.50;99.90;;;;;;5097483;28;20662;-85
2021/05/17 06:05:59;;;;;;;7.03;2.20;;;11.50;99.90;;;;;;5094474;28;20244;-84
2021/05/17 06:08:25;;;;;;;10.93;2.20;;;11.60;99.90;;;;;;5097124;28;20199;-85
2021/05/17 06:10:54;;;;;;;9.87;2.63;;;11.80;99.90;;;;;;5097630;28;20297;-85
2021/05/17 06:13:21;;;;;;;6.83;1.80;;;12.10;99.90;;;;;;5096389;28;20306;-84
2021/05/17 06:15:47;;;;;;;6.97;2.13;;;12.30;99.90;;;;;;5096585;28;20195;-84
2021/05/17 06:18:15;;;;;;;7.23;2.17;;;12.80;99.90;;;;;;5095715;28;20639;-84
2021/05/17 06:20:42;;;;;;;7.13;2.17;;;13.00;99.90;;;;;;5095716;28;20191;-83
2021/05/17 06:23:12;;;;;;;8.43;2.37;;;13.10;99.90;;;;;;5095810;28;20206;-84
2021/05/17 06:25:39;;;;;;;7.70;2.00;;;13.00;99.90;;;;;;5095929;28;20678;-84
2021/05/17 06:28:07;;;;;;;10.00;1.80;;;13.10;99.90;;;;;;5095343;28;20195;-84
2021/05/17 06:30:42;;;;;;;5.83;1.80;;;13.00;99.90;;;;;;5092968;28;20210;-84
2021/05/17 06:33:09;;;;;;;6.80;1.73;;;13.10;99.90;;;;;;5094866;28;20574;-85
2021/05/17 06:35:43;;;;;;;6.10;1.57;;;14.40;99.90;;;;;;5096395;28;20292;-85
2021/05/17 06:38:10;;;;;;;9.03;2.00;;;15.00;99.90;;;;;;5096110;28;20203;-85
2021/05/17 06:40:36;;;;;;;9.13;1.87;;;15.20;99.90;;;;;;5095252;28;20319;-85
2021/05/17 06:43:03;;;;;;;7.53;2.20;;;15.20;99.90;;;;;;5094877;28;20712;-85
2021/05/17 06:45:33;;;;;;;7.70;1.83;;;15.10;99.90;;;;;;5093886;28;20206;-84
2021/05/17 06:48:00;;;;;;;6.43;2.30;;;15.10;99.90;;;;;;5093849;28;20202;-85
2021/05/17 06:50:27;;;;;;;6.40;1.83;;;14.60;99.90;;;;;;5093062;28;20660;-85
2021/05/17 06:52:54;;;;;;;7.87;2.63;;;14.10;99.90;;;;;;5093745;28;20202;-85
2021/05/17 06:55:27;;;;;;;6.83;2.00;;;13.80;99.90;;;;;;5093194;28;20203;-88
2021/05/17 07:00:45;;;;;;;8.10;1.90;;;13.20;99.90;;;;;;5092174;28;20230;-84
2021/05/17 07:03:12;;;;;;;6.87;2.20;;;13.10;99.90;;;;;;5092482;28;20690;-85
2021/05/17 07:05:40;;;;;;;7.53;1.90;;;13.00;99.90;;;;;;5090802;28;20206;-85
2021/05/17 07:13:50;;;;;;;6.97;1.80;;;12.70;99.90;;;;;;5094017;28;20266;-83
2021/05/17 07:16:17;;;;;;;8.97;2.10;;;12.60;99.90;;;;;;5090908;28;20648;-83
2021/05/17 07:18:44;;;;;;;5.27;1.90;;;12.40;99.90;;;;;;5089068;28;20222;-83
2021/05/17 07:23:55;;;;;;;5.13;2.07;;;12.30;99.90;;;;;;5092841;28;20193;-84
2021/05/17 07:26:23;;;;;;;7.33;2.10;;;12.20;99.90;;;;;;5092746;28;20241;-84
2021/05/17 07:28:52;;;;;;;8.20;2.03;;;12.20;99.90;;;;;;5093301;28;20197;-85
2021/05/17 07:31:20;;;;;;;3.70;2.17;;;12.10;99.90;;;;;;5093110;28;20191;-83
2021/05/17 07:33:47;;;;;;;11.93;2.43;;;12.00;99.90;;;;;;5092077;28;20217;-83
2021/05/17 07:36:15;;;;;;;9.17;3.03;;;12.10;99.90;;;;;;5093275;28;20584;-81
2021/05/17 07:38:43;;;;;;;6.57;2.43;;;12.00;99.90;;;;;;5092479;28;20610;-81
2021/05/17 07:41:10;;;;;;;8.97;3.13;;;12.00;99.90;;;;;;5092957;28;20197;-81
2021/05/17 07:43:38;;;;;;;7.17;2.60;;;12.00;99.90;;;;;;5093291;28;20290;-83
2021/05/17 07:46:07;;;;;;;7.00;2.33;;;12.00;99.90;;;;;;5092544;28;20214;-82
2021/05/17 07:49:03;;;;;;;7.47;2.87;;;12.00;99.90;;;;;;5091486;28;20213;-82
2021/05/17 07:51:28;;;;;;;10.93;2.67;;;12.10;99.90;;;;;;5091750;28;20681;-82
2021/05/17 07:54:02;;;;;;;4.40;2.20;;;12.10;99.90;;;;;;5092471;28;20213;-81
2021/05/17 07:56:31;;;;;;;5.20;2.10;;;12.20;99.90;;;;;;5092085;28;20679;-84
2021/05/17 07:58:58;;;;;;;7.90;2.40;;;12.20;99.90;;;;;;5092584;28;20599;-82
2021/05/17 08:01:25;;;;;;;8.97;2.50;;;12.30;99.90;;;;;;5092812;28;20225;-83
2021/05/17 08:03:52;;;;;;;7.57;2.93;;;12.30;99.90;;;;;;5092125;28;20210;-81
2021/05/17 08:06:19;;;;;;;7.43;2.87;;;12.30;99.90;;;;;;5092634;28;20202;-83
2021/05/17 08:08:46;;;;;;;10.57;2.90;;;12.20;99.90;;;;;;5092974;28;20283;-82
2021/05/17 08:11:12;;;;;;;6.50;2.60;;;12.20;99.90;;;;;;5092698;28;20287;-82
2021/05/17 08:13:39;;;;;;;8.07;2.77;;;12.30;99.90;;;;;;5092456;28;20304;-82
2021/05/17 08:16:06;;;;;;;11.60;3.30;;;12.40;99.90;;;;;;5092851;28;20225;-82
2021/05/17 08:18:34;;;;;;;7.97;2.70;;;12.50;99.90;;;;;;5091972;28;20253;-84
2021/05/17 08:21:01;;;;;;;7.57;2.90;;;12.60;99.90;;;;;;5092536;28;20211;-83
2021/05/17 08:23:27;;;;;;;8.20;2.97;;;12.70;99.90;;;;;;5092334;28;20344;-81
2021/05/17 08:25:54;;;;;;;8.87;3.33;;;12.60;99.90;;;;;;5092592;28;20289;-82
2021/05/17 08:28:20;;;;;;;7.47;3.20;;;12.60;99.90;;;;;;5092370;28;20203;-81
2021/05/17 08:30:54;;;;;;;6.73;3.10;;;12.40;99.90;;;;;;5091786;28;20206;-82
2021/05/17 08:33:21;;;;;;;9.13;2.80;;;12.40;99.90;;;;;;5091928;28;20637;-82
2021/05/17 08:35:50;;;;;;;6.17;3.07;;;12.50;99.90;;;;;;5092115;28;20668;-84
2021/05/17 08:38:23;;;;;;;8.97;3.50;;;12.40;99.90;;;;;;5091976;28;20206;-82
2021/05/17 08:40:53;;;;;;;7.63;3.53;;;12.40;99.90;;;;;;5091522;28;20571;-82
2021/05/17 08:43:22;;;;;;;9.57;3.50;;;12.30;99.90;;;;;;5091530;28;20649;-84
2021/05/17 08:45:49;;;;;;;9.57;4.23;;;12.40;99.90;;;;;;5092428;28;20697;-85
2021/05/17 08:48:18;;;;;;;9.60;4.00;;;12.60;99.90;;;;;;5092296;28;20618;-84
2021/05/17 08:50:46;;;;;;;10.33;3.87;;;13.20;99.90;;;;;;5093290;28;20313;-85
2021/05/17 08:53:18;;;;;;;6.07;2.90;;;14.20;99.90;;;;;;5095251;28;20195;-85
2021/05/17 08:55:48;;;;;;;6.87;2.53;;;15.40;99.90;;;;;;5095440;28;20268;-85
2021/05/17 08:58:26;;;;;;;6.27;2.90;;;15.80;99.90;;;;;;5095635;28;20226;-85
2021/05/17 09:00:54;;;;;;;3.83;1.93;;;16.20;99.90;;;;;;5095592;28;20248;-84
2021/05/17 09:03:21;;;;;;;5.33;2.43;;;16.40;99.90;;;;;;5095416;28;20255;-84
2021/05/17 09:05:49;;;;;;;7.77;2.67;;;16.00;99.90;;;;;;5095716;28;20260;-84
2021/05/17 09:08:16;;;;;;;5.57;2.70;;;16.10;99.90;;;;;;5095565;28;20211;-84
2021/05/17 09:10:47;;;;;;;3.33;2.27;;;15.90;99.90;;;;;;5095597;28;20211;-84
2021/05/17 09:13:16;;;;;;;5.47;2.37;;;16.10;99.90;;;;;;5095018;28;20203;-84
2021/05/17 09:15:45;;;;;;;5.13;2.50;;;16.10;99.90;;;;;;5095355;28;20366;-84
2021/05/17 09:18:14;;;;;;;7.30;2.87;;;15.60;99.90;;;;;;5094918;28;20213;-83
2021/05/17 09:20:43;;;;;;;5.60;2.90;;;15.00;99.90;;;;;;5095044;28;20321;-83
2021/05/17 09:23:15;;;;;;;7.13;3.03;;;14.70;99.90;;;;;;5095055;28;20641;-84
2021/05/17 09:26:06;;;;;;;5.10;3.40;;;14.60;99.90;;;;;;5094860;28;20260;-84
2021/05/17 09:28:35;;;;;;;7.90;3.80;;;14.30;99.90;;;;;;5094832;28;20274;-83
2021/05/17 09:31:05;;;;;;;7.33;4.00;;;14.30;99.90;;;;;;5095300;28;20273;-84
2021/05/17 09:33:44;;;;;;;11.80;4.30;;;14.60;99.90;;;;;;5095145;28;20303;-84
2021/05/17 09:36:25;;;;;;;8.80;4.20;;;15.30;99.90;;;;;;5094876;28;20513;-85
2021/05/17 09:38:57;;;;;;;12.33;4.30;;;15.90;99.90;;;;;;5094950;28;20234;-84
2021/05/17 09:41:23;;;;;;;9.13;4.50;;;16.60;99.90;;;;;;5094980;28;20231;-84
2021/05/17 09:43:50;;;;;;;8.90;4.20;;;16.70;99.90;;;;;;5094160;28;20771;-83
2021/05/17 09:46:17;;;;;;;9.00;4.17;;;16.70;99.90;;;;;;5094560;28;20230;-84
2021/05/17 09:48:49;;;;;;;14.30;4.80;;;16.30;99.90;;;;;;5094343;28;20290;-84
2021/05/17 09:51:18;;;;;;;9.77;4.20;;;15.90;99.90;;;;;;5094580;28;20187;-84
2021/05/17 09:53:46;;;;;;;12.13;4.27;;;15.60;99.90;;;;;;5094622;28;20202;-85
2021/05/17 09:56:23;;;;;;;10.17;4.53;;;15.50;99.90;;;;;;5094519;28;20267;-85
2021/05/17 09:58:57;;;;;;;13.30;4.50;;;15.40;99.90;;;;;;5094597;28;20282;-84
2021/05/17 10:01:28;;;;;;;11.57;4.60;;;15.20;99.90;;;;;;5093245;28;20206;-83
2021/05/17 10:04:00;;;;;;;12.40;5.53;;;15.00;99.90;;;;;;5094598;28;20191;-84
2021/05/17 10:06:27;;;;;;;14.20;5.20;;;14.80;99.90;;;;;;5093961;28;20651;-82
2021/05/17 10:08:56;;;;;;;18.50;6.73;;;14.80;99.90;;;;;;5094135;28;20204;-81
2021/05/17 10:11:26;;;;;;;13.93;5.53;;;14.60;99.90;;;;;;5093762;28;20211;-84
2021/05/17 10:13:54;;;;;;;18.10;5.17;;;14.50;99.90;;;;;;5093597;28;20241;-84
2021/05/17 10:16:23;;;;;;;17.33;6.13;;;14.30;99.90;;;;;;5094126;28;20202;-83
2021/05/17 10:18:55;;;;;;;15.60;5.57;;;14.50;99.90;;;;;;5093941;28;20289;-89
2021/05/17 10:21:22;;;;;;;23.03;6.37;;;14.80;99.90;;;;;;5094250;28;20206;-85
2021/05/17 10:23:50;;;;;;;18.73;6.13;;;15.10;99.90;;;;;;5093713;28;20214;-84
2021/05/17 10:26:20;;;;;;;15.47;5.93;;;15.50;99.90;;;;;;5094164;28;20206;-84
2021/05/17 10:28:57;;;;;;;17.47;5.80;;;15.90;99.90;;;;;;5093497;28;20191;-84
2021/05/17 10:31:25;;;;;;;12.67;5.47;;;16.40;99.90;;;;;;5094044;28;20290;-87
2021/05/17 10:34:00;;;;;;;19.77;6.03;;;16.60;99.90;;;;;;5093904;28;20202;-86
2021/05/17 10:36:51;;;;;;;16.87;5.60;;;16.50;99.90;;;;;;5093783;28;20202;-85
2021/05/17 10:39:23;;;;;;;18.90;5.13;;;16.10;99.90;;;;;;5093465;28;20715;-86
2021/05/17 10:42:10;;;;;;;14.53;4.13;;;15.80;99.90;;;;;;5093973;28;20202;-85
2021/05/17 10:47:48;;;;;;;14.20;5.10;;;16.10;99.90;;;;;;5093539;28;20198;-85
2021/05/17 10:50:16;;;;;;;15.53;4.27;;;16.70;99.90;;;;;;5093948;28;20221;-85
2021/05/17 10:52:44;;;;;;;14.20;3.90;;;16.90;99.90;;;;;;5093306;28;20210;-85
2021/05/17 10:55:14;;;;;;;13.10;3.67;;;17.30;99.90;;;;;;5094018;28;20213;-85
2021/05/17 10:58:08;;;;;;;10.00;3.90;;;18.00;99.90;;;;;;5093895;28;20203;-86
2021/05/17 11:00:40;;;;;;;14.00;4.00;;;18.10;99.90;;;;;;5092845;28;20285;-86
2021/05/17 11:03:10;;;;;;;13.83;4.07;;;18.10;99.90;;;;;;5093041;28;20205;-85
2021/05/17 11:05:42;;;;;;;11.50;3.50;;;18.00;99.90;;;;;;5093083;28;20195;-85
2021/05/17 11:08:19;;;;;;;5.67;2.80;;;17.60;99.90;;;;;;5093866;28;20232;-87
2021/05/17 11:10:52;;;;;;;5.03;3.23;;;16.50;99.90;;;;;;5093516;28;20222;-85
2021/05/17 11:13:21;;;;;;;7.10;4.03;;;15.40;99.90;;;;;;5092183;28;20206;-86
2021/05/17 11:16:03;;;;;;;10.53;4.87;;;14.80;99.90;;;;;;5093308;28;20195;-85
2021/05/17 11:18:40;;;;;;;9.83;5.37;;;14.60;99.90;;;;;;5093357;28;20209;-86
2021/05/17 11:21:21;;;;;;;12.67;6.00;;;14.50;99.90;;;;;;5092920;28;20233;-86
2021/05/17 11:24:07;;;;;;;15.60;6.43;;;14.40;99.90;;;;;;5093201;28;20194;-83
2021/05/17 11:26:52;;;;;;;11.13;6.37;;;13.90;99.90;;;;;;5093064;28;20261;-83
2021/05/17 11:29:35;;;;;;;14.23;7.57;;;13.60;99.90;;;;;;5093255;28;20208;-82
2021/05/17 11:32:41;;;;;;;13.90;7.90;;;13.40;99.90;;;;;;5090895;28;20288;-86
2021/05/17 11:35:12;;;;;;;19.07;8.90;;;13.50;99.90;;;;;;5093416;28;20210;-84
2021/05/17 11:51:57;;;;;;;9.97;5.60;;;18.90;99.90;;;;;;4896933;28;20204;-86
2021/05/17 11:54:38;;;;;;;6.67;4.67;;;19.10;99.90;;;;;;4989978;28;20698;-85
2021/05/17 11:57:11;;;;;;;9.00;4.87;;;19.30;99.90;;;;;;5030408;28;20220;-85
2021/05/17 11:59:58;;;;;;;6.80;4.43;;;20.00;99.90;;;;;;5073543;28;20218;-85
2021/05/17 12:53:36;;;;;;;5.57;2.80;;;18.50;99.90;;;;;;4790726;29;20226;-83
2021/05/17 12:56:03;;;;;;;6.37;2.70;;;19.50;99.90;;;;;;4868003;29;20234;-84
2021/05/17 12:58:34;;;;;;;6.13;2.70;;;20.10;99.90;;;;;;4949180;28;20312;-86
2021/05/17 13:01:08;;;;;;;6.17;2.33;;;19.70;99.90;;;;;;5075770;28;20231;-83
2021/05/17 13:03:42;;;;;;;6.67;3.20;;;19.50;99.90;;;;;;5075551;28;20269;-88
2021/05/17 13:06:23;;;;;;;9.87;3.20;;;19.00;99.90;;;;;;5075463;28;20222;-85
2021/05/17 13:09:08;;;;;;;8.00;3.63;;;18.30;99.90;;;;;;5075335;28;20210;-90
2021/05/17 13:11:42;;;;;;;7.53;4.47;;;17.50;99.90;;;;;;5075423;28;20199;-84
2021/05/17 13:14:28;;;;;;;9.33;3.87;;;17.00;99.90;;;;;;5074833;28;20230;-84
2021/05/17 13:17:07;;;;;;;9.07;3.40;;;17.00;99.90;;;;;;5075003;28;20203;-84
2021/05/17 13:19:43;;;;;;;9.30;3.40;;;17.00;99.90;;;;;;5075155;28;20219;-82
2021/05/17 13:30:37;;;;;;;8.67;4.23;;;18.40;99.90;;;;;;5075297;28;20684;-84
2021/05/17 13:33:04;;;;;;;9.57;3.97;;;17.90;99.90;;;;;;5074932;28;20195;-84
2021/05/17 13:35:42;;;;;;;5.50;3.23;;;17.50;99.90;;;;;;5074608;28;20227;-83
2021/05/17 13:38:23;;;;;;;5.87;3.07;;;17.50;99.90;;;;;;5074469;28;20207;-85
2021/05/17 13:40:50;;;;;;;7.57;3.73;;;17.30;99.90;;;;;;5075026;28;20334;-83
2021/05/17 13:43:19;;;;;;;8.60;3.37;;;17.30;99.90;;;;;;5075144;28;20231;-83
2021/05/17 13:45:51;;;;;;;8.50;2.93;;;17.70;99.90;;;;;;5074677;28;20295;-85
2021/05/17 13:48:18;;;;;;;10.90;3.47;;;18.10;99.90;;;;;;5074731;28;20207;-83
2021/05/17 13:50:44;;;;;;;8.07;3.83;;;18.40;99.90;;;;;;5074600;28;20242;-83
2021/05/17 13:53:20;;;;;;;12.23;5.80;;;18.40;99.90;;;;;;5074933;28;20202;-84
2021/05/17 13:55:49;;;;;;;9.27;4.33;;;18.30;99.90;;;;;;5076157;28;20206;-83
2021/05/17 13:58:17;;;;;;;19.43;5.33;;;18.30;99.90;;;;;;5076240;28;20208;-86
2021/05/17 14:00:47;;;;;;;9.60;4.53;;;17.90;99.90;;;;;;5077853;28;20263;-84
2021/05/17 14:03:15;;;;;;;9.37;4.27;;;18.20;99.90;;;;;;5074992;28;20289;-84
2021/05/17 14:05:42;;;;;;;10.57;4.63;;;18.50;99.90;;;;;;5071902;28;20536;-85
2021/05/17 14:08:11;;;;;;;11.37;5.97;;;18.70;99.90;;;;;;5074495;28;20223;-85
2021/05/17 14:10:37;;;;;;;8.53;6.67;;;18.80;99.90;;;;;;5074518;28;20196;-84
2021/05/17 14:13:04;;;;;;;11.03;8.17;;;19.00;99.90;;;;;;5075079;28;20231;-85
2021/05/17 14:15:31;;;;;;;12.33;7.53;;;19.30;99.90;;;;;;5076617;28;20609;-83
2021/05/17 14:17:58;;;;;;;14.67;5.80;;;19.50;99.90;;;;;;5076960;28;20199;-84
2021/05/17 14:20:24;;;;;;;14.17;5.50;;;19.70;99.90;;;;;;5075702;28;20231;-83
2021/05/17 14:22:53;;;;;;;12.53;5.83;;;19.40;99.90;;;;;;5075396;28;20554;-85
2021/05/17 14:25:20;;;;;;;10.87;6.17;;;19.10;99.90;;;;;;5066897;28;20221;-82
2021/05/17 14:27:47;;;;;;;7.23;4.50;;;18.80;99.90;;;;;;5081035;28;20328;-82
2021/05/17 14:30:16;;;;;;;14.13;5.33;;;19.00;99.90;;;;;;5086580;28;20210;-82
2021/05/17 14:32:44;;;;;;;10.20;4.43;;;19.00;99.90;;;;;;5095178;28;20687;-82